Airport ID:KCCB
Update Time (UTC):29/01/2020 15:52
Wind Speed (Knots):3
Wind Direction (Magnetic):20
Temperature (°C):11.8
Dew Point (°C):-0.7
Humidity (%):44.5
Altimeter (inHg):30.02
Density Altitude (Feet):
Visibility (Miles):10
Clouds (Hundreds of feet):CLR
Present Weather:
METAR:METAR KCCB 291550Z AUTO 00000KT 10SM CLR 12/M00 A3002 RMK AO2

The data displayed is for advisory purposes only and is not to be used for flight planning or operations.

This page is not automatically refreshed. Reload the page to see current data.